Oxford, KS

5:28 AM CDT on October 23, 2014 (GMT -0500)
Randy's Backyard | Change Station
CLOSE
Current Station
Personal Weather Station
Location: Winfield, KS
Elevation: 1138 ft
Nearby Weather Stations

Elev 1138 ft 37.24 °N, 97.00 °W | Updated 15 seconds ago

Rain
Rain
63.1 °F
Feels Like 63.1 °F
N
0.4
Wind Variable Wind from NNW
Gusts 2.5 mph

Today
High -- | Low -- °F
--% Chance of Precip.
Yesterday
High -- | Low -- °F
Precip. -- in
7:44 AM 6:41 PM
Waning Crescent, 0% visible
Pressure 30.10 in
Visibility 5.0 miles
Clouds Few 600 ft
Mostly Cloudy 5500 ft
Overcast 8000 ft
Dew Point 62 °F
Humidity 97%
Rainfall 0.00 in
Snow Depth Not available.
UV 0 out of 12
Pollen 3.60 out of 12
Air Quality Not available.
Flu Activity No Activity
SPECI KWLD 231002Z AUTO 18006KT 5SM BR FEW006 BKN055 OVC080 17/17 A3010 RMK AO2 RAE0958 P0000 T01670167

More Conditions Fewer Conditions

Pressure 30.10 in
Visibility 5.0 miles
Clouds Few 600 ft
Mostly Cloudy 5500 ft
Overcast 8000 ft
Dew Point 62 °F
Humidity 97%
Rainfall 0.00 in
Snow Depth Not available.
UV 0 out of 12
Pollen 3.60 out of 12
Air Quality Not available.
Flu Activity No Activity
SPECI KWLD 231002Z AUTO 18006KT 5SM BR FEW006 BKN055 OVC080 17/17 A3010 RMK AO2 RAE0958 P0000 T01670167

More Conditions Fewer Conditions

10-Day Weather Forecast

Almanac

Astronomy

Oct. 23, 2014 Rise Set
Actual Time 7:44 AM CDT 6:41 PM CDT
Civil Twilight 7:17 AM CDT 7:07 PM CDT
Nautical Twilight 6:47 AM CDT 7:38 PM CDT
Astronomical Twilight 6:16 AM CDT 8:08 PM CDT
Moon 7:25 AM CDT 6:43 PM CDT
Length of Visible Light 11h 50m
Length of Day
10h 56m
Tomorrow will be 2m 12s shorter.
Waning Crescent, 0% of the Moon is Illuminated
Today
Waning Crescent
Oct 23
New
Oct 30
First Quarter
Nov 6
Full
Nov 14
Last Quarter

Today's Extremes

State Highs State Lows

Community

WunderPhotos

Upload Photos

1,764,202 photos uploaded!

Nearby

Snow Depth

Station Depth Elevation
No new snow has been reported.

Earthquake Activity

City Distance Mag. Time & Date
Medford, Oklahoma 52 miles 3.0 2:06 AM CDT
2014-10-23
Pawnee, Oklahoma 59 miles 2.7 1:06 AM CDT
2014-10-23
Luther, Oklahoma 115 miles 2.5 10:36 PM CDT
2014-10-22
Crescent, Oklahoma 83 miles 2.7 9:58 PM CDT
2014-10-22
Minimum magnitude displayed is 2.5.

Coastal Water Temperatures

Place Temperature
No Stations Reporting

Nearby Weather Stations